CheckWX is a tool to help pilots better visualize weather data.  It is not intended as a substitute for an official pre-flight weather briefing.

23:18:18 UTC

0R0 METAR
Columbia-Marion County Airport
Columbia, Mississippi, USA
Current

23 mins ago

K0R0 082255Z AUTO 18003KT 10SM BKN038 18/14 A3004 RMK AO2
Observed
Dec-8 @ 22:55 UTC
Wind
  • 180° at 3 KTS
Visibility
10 SM
Flight Rules
VFR
Cloud Levels
  • Broken at 3,800' AGL
Temperature
18°C / 64°F
Dewpoint
14°C / 57°F
Humidity
78%
Altimeter
30.04" Hg
Pressure
1017.32 hPa
Previous

43 mins ago

K0R0 082235Z AUTO 16004KT 10SM BKN036 19/14 A3005 RMK AO2
Observed
Dec-8 @ 22:35 UTC
Wind
  • 160° at 4 KTS
Visibility
10 SM
Flight Rules
VFR
Cloud Levels
  • Broken at 3,600' AGL
Temperature
19°C / 66°F
Dewpoint
14°C / 57°F
Humidity
73%
Altimeter
30.05" Hg
Pressure
1017.62 hPa
Previous

1 hour ago

K0R0 082215Z AUTO 00000KT 10SM FEW036 20/14 A3005 RMK AO2
Observed
Dec-8 @ 22:15 UTC
Visibility
10 SM
Flight Rules
VFR
Cloud Levels
  • Few at 3,600' AGL
Temperature
20°C / 68°F
Dewpoint
14°C / 57°F
Humidity
69%
Altimeter
30.05" Hg
Pressure
1017.62 hPa